createdAt,value
2017-09-06T00:00:04.910Z,21.56
2017-09-06T00:01:04.880Z,21.59
2017-09-06T00:02:04.884Z,21.65
2017-09-06T00:03:05.263Z,21.68
2017-09-06T00:04:04.523Z,21.66
2017-09-06T00:05:05.254Z,21.61
2017-09-06T00:06:04.822Z,21.59
2017-09-06T00:07:05.161Z,21.59
2017-09-06T00:08:05.112Z,21.59
2017-09-06T00:09:04.792Z,21.5
2017-09-06T00:10:04.765Z,21.52
2017-09-06T00:11:04.751Z,21.44
2017-09-06T00:12:05.070Z,21.47
2017-09-06T00:13:04.731Z,21.55
2017-09-06T00:14:05.102Z,21.46
2017-09-06T00:15:04.711Z,21.47
2017-09-06T00:16:05.008Z,21.49
2017-09-06T00:17:04.999Z,21.44
2017-09-06T00:18:04.980Z,21.39
2017-09-06T00:19:04.953Z,21.47
2017-09-06T00:20:04.946Z,21.41
2017-09-06T00:21:04.943Z,21.44
2017-09-06T00:22:04.604Z,21.43
2017-09-06T00:23:04.933Z,21.44
2017-09-06T00:24:04.901Z,21.41
2017-09-06T00:25:04.870Z,21.41
2017-09-06T00:26:04.873Z,21.44
2017-09-06T00:27:04.873Z,21.49
2017-09-06T00:28:04.831Z,21.43
2017-09-06T00:29:04.814Z,21.37
2017-09-06T00:30:04.831Z,21.4
2017-09-06T00:31:04.802Z,21.46
2017-09-06T00:32:04.789Z,21.39
2017-09-06T00:33:04.782Z,21.5
2017-09-06T00:34:04.751Z,21.44
2017-09-06T00:35:04.751Z,21.34
2017-09-06T00:36:04.990Z,21.28
2017-09-06T00:37:04.723Z,21.22
2017-09-06T00:38:04.704Z,21.29
2017-09-06T00:39:04.697Z,21.25
2017-09-06T00:40:04.050Z,21.25
2017-09-06T00:41:04.662Z,21.17
2017-09-06T00:42:04.650Z,21.25
2017-09-06T00:43:04.313Z,21.26
2017-09-06T00:44:04.315Z,21.31
2017-09-06T00:45:04.300Z,21.21
2017-09-06T00:46:04.601Z,21.22
2017-09-06T00:47:04.270Z,21.25
2017-09-06T00:48:04.560Z,21.21
2017-09-06T00:49:04.240Z,21.03
2017-09-06T00:50:04.226Z,20.97
2017-09-06T00:51:04.551Z,20.91
2017-09-06T00:52:04.530Z,21
2017-09-06T00:53:04.193Z,21.1
2017-09-06T00:54:04.485Z,21.06
2017-09-06T00:55:04.473Z,21.07
2017-09-06T00:56:04.146Z,21.11
2017-09-06T00:57:04.439Z,21.19
2017-09-06T00:58:04.119Z,21.19
2017-09-06T00:59:04.409Z,21.03
2017-09-06T01:00:04.411Z,21
2017-09-06T01:01:04.383Z,21.02
2017-09-06T01:02:04.377Z,21.07
2017-09-06T01:03:03.731Z,21.09
2017-09-06T01:04:04.350Z,21.1
2017-09-06T01:05:04.020Z,21.19
2017-09-06T01:06:04.009Z,21.03
2017-09-06T01:07:04.310Z,21.02
2017-09-06T01:08:03.990Z,21
2017-09-06T01:09:04.279Z,20.92
2017-09-06T01:10:04.369Z,20.79
2017-09-06T01:11:04.298Z,20.82
2017-09-06T01:12:04.235Z,20.81
2017-09-06T01:13:04.280Z,20.85
2017-09-06T01:14:04.028Z,20.82
2017-09-06T01:15:03.581Z,20.72
2017-09-06T01:16:04.169Z,20.82
2017-09-06T01:17:03.870Z,20.81
2017-09-06T01:18:04.280Z,20.82
2017-09-06T01:19:03.904Z,20.73
2017-09-06T01:20:04.152Z,20.82
2017-09-06T01:21:04.220Z,20.7
2017-09-06T01:22:03.859Z,20.54
2017-09-06T01:23:03.792Z,20.62
2017-09-06T01:24:03.769Z,20.57
2017-09-06T01:25:04.069Z,20.54
2017-09-06T01:26:03.739Z,20.58
2017-09-06T01:27:04.059Z,20.72
2017-09-06T01:28:03.769Z,20.69
2017-09-06T01:29:04.113Z,20.54
2017-09-06T01:30:03.745Z,20.43
2017-09-06T01:31:03.783Z,20.48
2017-09-06T01:32:03.700Z,20.51
2017-09-06T01:33:03.952Z,20.57
2017-09-06T01:34:03.684Z,20.63
2017-09-06T01:35:03.635Z,20.55
2017-09-06T01:36:03.623Z,20.28
2017-09-06T01:37:03.571Z,20.43
2017-09-06T01:38:03.581Z,20.55
2017-09-06T01:39:03.871Z,20.54
2017-09-06T01:40:03.540Z,20.57
2017-09-06T01:41:03.531Z,20.49
2017-09-06T01:42:03.868Z,20.57
2017-09-06T01:43:03.615Z,20.57
2017-09-06T01:44:03.481Z,20.51
2017-09-06T01:45:03.459Z,20.63
2017-09-06T01:46:03.456Z,20.67
2017-09-06T01:47:03.447Z,20.7
2017-09-06T01:48:03.740Z,20.6
2017-09-06T01:49:03.430Z,20.6
2017-09-06T01:50:03.399Z,20.6
2017-09-06T01:51:03.084Z,20.54
2017-09-06T01:52:03.693Z,20.57
2017-09-06T01:53:03.661Z,20.62
2017-09-06T01:54:03.339Z,20.55
2017-09-06T01:55:03.638Z,20.47
2017-09-06T01:56:03.639Z,20.44
2017-09-06T01:57:03.619Z,20.49
2017-09-06T01:58:02.979Z,20.51
2017-09-06T01:59:03.282Z,20.36
2017-09-06T02:00:03.650Z,20.49
2017-09-06T02:01:03.560Z,20.44
2017-09-06T02:02:03.550Z,20.54
2017-09-06T02:03:03.532Z,20.49
2017-09-06T02:04:03.198Z,20.47
2017-09-06T02:05:03.193Z,20.35
2017-09-06T02:06:03.180Z,20.33
2017-09-06T02:07:03.494Z,20.41
2017-09-06T02:08:03.149Z,20.36
2017-09-06T02:09:03.450Z,20.41
2017-09-06T02:10:03.428Z,20.48
2017-09-06T02:11:03.418Z,20.28
2017-09-06T02:12:03.098Z,20.25
2017-09-06T02:13:02.766Z,20.22
2017-09-06T02:14:03.379Z,20.25
2017-09-06T02:15:03.358Z,20.18
2017-09-06T02:16:03.359Z,20.2
2017-09-06T02:17:03.330Z,20.26
2017-09-06T02:18:03.010Z,20.31
2017-09-06T02:19:03.320Z,20.2
2017-09-06T02:20:03.299Z,20.25
2017-09-06T02:21:02.965Z,20.23
2017-09-06T02:22:02.642Z,20.26
2017-09-06T02:23:02.632Z,20.1
2017-09-06T02:24:03.251Z,20.17
2017-09-06T02:25:02.588Z,20.28
2017-09-06T02:26:02.963Z,20.43
2017-09-06T02:27:03.199Z,20.29
2017-09-06T02:28:03.169Z,20.32
2017-09-06T02:29:03.160Z,20.44
2017-09-06T02:30:02.839Z,20.4
2017-09-06T02:31:02.830Z,20.26
2017-09-06T02:32:02.500Z,20.28
2017-09-06T02:33:02.789Z,20.31
2017-09-06T02:34:03.092Z,20.14
2017-09-06T02:35:02.771Z,20.11
2017-09-06T02:36:03.069Z,20.01
2017-09-06T02:37:03.072Z,19.81
2017-09-06T02:38:02.407Z,19.89
2017-09-06T02:39:03.017Z,19.8
2017-09-06T02:40:03.010Z,19.78
2017-09-06T02:41:02.675Z,19.67
2017-09-06T02:42:02.367Z,19.56
2017-09-06T02:43:02.681Z,19.52
2017-09-06T02:44:02.948Z,19.56
2017-09-06T02:45:03.050Z,19.67
2017-09-06T02:46:02.940Z,19.59
2017-09-06T02:47:02.598Z,19.56
2017-09-06T02:48:02.577Z,19.62
2017-09-06T02:49:02.911Z,19.7
2017-09-06T02:50:02.550Z,19.58
2017-09-06T02:51:02.540Z,19.48
2017-09-06T02:52:02.520Z,19.55
2017-09-06T02:53:02.517Z,19.4
2017-09-06T02:54:02.511Z,19.41
2017-09-06T02:55:02.500Z,19.46
2017-09-06T02:56:02.467Z,19.61
2017-09-06T02:57:02.756Z,19.61
2017-09-06T02:58:02.129Z,19.67
2017-09-06T02:59:02.784Z,19.7
2017-09-06T03:00:02.399Z,19.8
2017-09-06T03:01:02.535Z,19.88
2017-09-06T03:02:02.398Z,19.77
2017-09-06T03:03:02.668Z,19.67
2017-09-06T03:04:02.350Z,19.55
2017-09-06T03:05:02.339Z,19.58
2017-09-06T03:06:02.332Z,19.52
2017-09-06T03:07:02.361Z,19.62
2017-09-06T03:08:02.597Z,19.53
2017-09-06T03:09:02.599Z,19.43
2017-09-06T03:10:02.271Z,19.4
2017-09-06T03:11:02.578Z,19.48
2017-09-06T03:12:02.531Z,19.49
2017-09-06T03:13:02.256Z,19.51
2017-09-06T03:14:02.201Z,19.53
2017-09-06T03:15:02.540Z,19.38
2017-09-06T03:16:02.559Z,19.37
2017-09-06T03:17:02.217Z,19.38
2017-09-06T03:18:02.492Z,19.31
2017-09-06T03:19:02.441Z,19.37
2017-09-06T03:20:02.540Z,19.43
2017-09-06T03:21:02.409Z,19.53
2017-09-06T03:22:02.391Z,19.52
2017-09-06T03:23:02.073Z,19.59
2017-09-06T03:24:02.470Z,19.52
2017-09-06T03:25:01.728Z,19.52
2017-09-06T03:26:02.332Z,19.53
2017-09-06T03:27:02.012Z,19.51
2017-09-06T03:28:02.300Z,19.53
2017-09-06T03:29:02.303Z,19.51
2017-09-06T03:30:02.281Z,19.51
2017-09-06T03:31:02.272Z,19.52
2017-09-06T03:32:01.663Z,19.48
2017-09-06T03:33:01.919Z,19.62
2017-09-06T03:34:01.900Z,19.59
2017-09-06T03:35:01.887Z,19.58
2017-09-06T03:36:01.868Z,19.52
2017-09-06T03:37:02.166Z,19.38
2017-09-06T03:38:01.839Z,19.52
2017-09-06T03:39:01.831Z,19.55
2017-09-06T03:40:01.816Z,19.58
2017-09-06T03:41:02.135Z,19.58
2017-09-06T03:42:02.097Z,19.52
2017-09-06T03:43:01.769Z,19.38
2017-09-06T03:44:02.059Z,19.46
2017-09-06T03:45:01.737Z,19.51
2017-09-06T03:46:02.061Z,19.46
2017-09-06T03:47:01.708Z,19.53
2017-09-06T03:48:01.698Z,19.69
2017-09-06T03:49:01.987Z,19.67
2017-09-06T03:50:01.978Z,19.69
2017-09-06T03:51:01.959Z,19.63
2017-09-06T03:52:01.654Z,19.69
2017-09-06T03:53:01.309Z,19.69
2017-09-06T03:54:01.924Z,19.74
2017-09-06T03:55:01.910Z,19.77
2017-09-06T03:56:01.888Z,19.73
2017-09-06T03:57:01.879Z,19.81
2017-09-06T03:58:01.307Z,19.8
2017-09-06T03:59:01.829Z,19.81
2017-09-06T04:00:01.830Z,19.95
2017-09-06T04:01:01.512Z,19.95
2017-09-06T04:02:01.489Z,19.95
2017-09-06T04:03:01.169Z,19.95
2017-09-06T04:04:01.769Z,19.76
2017-09-06T04:05:01.473Z,19.74
2017-09-06T04:06:01.432Z,19.7
2017-09-06T04:07:01.425Z,19.78
2017-09-06T04:08:01.399Z,19.76
2017-09-06T04:09:01.688Z,19.78
2017-09-06T04:10:01.381Z,19.76
2017-09-06T04:11:01.048Z,19.52
2017-09-06T04:12:01.648Z,19.52
2017-09-06T04:13:01.646Z,19.51
2017-09-06T04:14:01.619Z,19.67
2017-09-06T04:15:01.611Z,19.66
2017-09-06T04:16:01.292Z,19.67
2017-09-06T04:17:01.581Z,19.67
2017-09-06T04:18:01.249Z,19.78
2017-09-06T04:19:01.551Z,19.8
2017-09-06T04:20:01.229Z,19.83
2017-09-06T04:21:01.558Z,19.8
2017-09-06T04:22:01.511Z,19.7
2017-09-06T04:23:01.509Z,19.69
2017-09-06T04:24:01.189Z,19.81
2017-09-06T04:25:01.150Z,19.76
2017-09-06T04:26:01.140Z,19.69
2017-09-06T04:27:01.431Z,19.67
2017-09-06T04:28:01.419Z,19.69
2017-09-06T04:29:01.079Z,19.76
2017-09-06T04:30:01.080Z,19.49
2017-09-06T04:31:01.069Z,19.55
2017-09-06T04:32:01.059Z,19.56
2017-09-06T04:33:01.337Z,19.51
2017-09-06T04:34:01.053Z,19.56
2017-09-06T04:35:01.019Z,19.63
2017-09-06T04:36:01.423Z,19.61
2017-09-06T04:37:00.980Z,19.69
2017-09-06T04:38:00.968Z,19.63
2017-09-06T04:39:01.256Z,19.58
2017-09-06T04:40:01.243Z,19.63
2017-09-06T04:41:00.919Z,19.53
2017-09-06T04:42:01.224Z,19.59
2017-09-06T04:43:01.210Z,19.52
2017-09-06T04:44:01.190Z,19.58
2017-09-06T04:45:00.854Z,19.59
2017-09-06T04:46:00.847Z,19.56
2017-09-06T04:47:00.839Z,19.56
2017-09-06T04:48:00.510Z,19.63
2017-09-06T04:49:01.119Z,19.71
2017-09-06T04:50:01.098Z,19.7
2017-09-06T04:51:01.121Z,19.66
2017-09-06T04:52:01.061Z,19.69
2017-09-06T04:53:01.062Z,19.76
2017-09-06T04:54:00.739Z,19.81
2017-09-06T04:55:01.019Z,19.76
2017-09-06T04:56:00.700Z,19.59
2017-09-06T04:57:01.039Z,19.56
2017-09-06T04:58:00.678Z,19.53
2017-09-06T04:59:00.980Z,19.62
2017-09-06T05:00:00.999Z,19.7
2017-09-06T05:01:00.952Z,19.56
2017-09-06T05:02:00.610Z,19.69
2017-09-06T05:03:00.609Z,19.67
2017-09-06T05:04:00.649Z,19.73
2017-09-06T05:05:00.581Z,19.73
2017-09-06T05:06:00.248Z,19.76
2017-09-06T05:07:00.859Z,19.77
2017-09-06T05:08:00.842Z,19.83
2017-09-06T05:09:00.511Z,19.71
2017-09-06T05:10:00.499Z,19.81
2017-09-06T05:11:00.488Z,19.78
2017-09-06T05:12:00.779Z,19.7
2017-09-06T05:13:00.451Z,19.59
2017-09-06T05:14:00.748Z,19.61
2017-09-06T05:15:00.109Z,19.7
2017-09-06T05:16:00.089Z,19.61
2017-09-06T05:17:00.718Z,19.51
2017-09-06T05:18:00.073Z,19.55
2017-09-06T05:19:00.718Z,19.56
2017-09-06T05:20:00.671Z,19.53
2017-09-06T05:21:00.379Z,19.51
2017-09-06T05:22:00.328Z,19.66
2017-09-06T05:23:00.328Z,19.71
2017-09-06T05:24:00.284Z,19.61
2017-09-06T05:25:00.028Z,19.46
2017-09-06T05:26:00.578Z,19.46
2017-09-06T05:26:59.939Z,19.26
2017-09-06T05:28:00.223Z,19.4
2017-09-06T05:29:00.218Z,19.43
2017-09-06T05:30:00.529Z,19.49
2017-09-06T05:31:00.189Z,19.56
2017-09-06T05:32:00.208Z,19.55
2017-09-06T05:33:00.468Z,19.55
2017-09-06T05:34:00.139Z,19.44
2017-09-06T05:35:00.129Z,19.52
2017-09-06T05:36:00.151Z,19.4
2017-09-06T05:37:00.088Z,19.43
2017-09-06T05:38:00.411Z,19.37
2017-09-06T05:39:00.074Z,19.26
2017-09-06T05:40:00.366Z,19.33
2017-09-06T05:41:00.047Z,19.23
2017-09-06T05:42:00.124Z,19.18
2017-09-06T05:43:00.322Z,19.22
2017-09-06T05:44:00.323Z,19.26
2017-09-06T05:45:00.063Z,19.44
2017-09-06T05:46:00.044Z,19.52
2017-09-06T05:47:00.269Z,19.55
2017-09-06T05:47:59.938Z,19.55
2017-09-06T05:48:59.916Z,19.66
2017-09-06T05:49:59.926Z,19.71
2017-09-06T05:51:00.200Z,19.7
2017-09-06T05:52:00.202Z,19.66
2017-09-06T05:53:00.198Z,19.62
2017-09-06T05:54:00.159Z,19.69
2017-09-06T05:55:00.150Z,19.62
2017-09-06T05:55:59.830Z,19.56
2017-09-06T05:56:59.598Z,19.58
2017-09-06T05:57:59.799Z,19.51
2017-09-06T05:58:59.774Z,19.51
2017-09-06T06:00:00.066Z,19.55
2017-09-06T06:01:00.060Z,19.55
2017-09-06T06:01:59.759Z,19.58
2017-09-06T06:03:00.029Z,19.69
2017-09-06T06:04:00.054Z,19.58
2017-09-06T06:05:00.009Z,19.67
2017-09-06T06:05:59.997Z,19.7
2017-09-06T06:06:59.977Z,19.59
2017-09-06T06:07:59.662Z,19.58
2017-09-06T06:08:59.935Z,19.61
2017-09-06T06:09:59.619Z,19.52
2017-09-06T06:10:59.920Z,19.58
2017-09-06T06:11:59.904Z,19.71
2017-09-06T06:12:59.872Z,19.77
2017-09-06T06:13:59.880Z,19.67
2017-09-06T06:14:59.226Z,19.69
2017-09-06T06:15:59.529Z,19.74
2017-09-06T06:16:59.830Z,19.88
2017-09-06T06:17:59.510Z,19.76
2017-09-06T06:18:59.498Z,19.81
2017-09-06T06:19:59.931Z,19.69
2017-09-06T06:20:59.456Z,19.77
2017-09-06T06:21:59.769Z,19.67
2017-09-06T06:22:59.427Z,19.61
2017-09-06T06:23:59.476Z,19.69
2017-09-06T06:24:59.407Z,19.67
2017-09-06T06:25:59.711Z,19.76
2017-09-06T06:26:59.369Z,19.73
2017-09-06T06:27:59.348Z,19.58
2017-09-06T06:28:59.652Z,19.69
2017-09-06T06:29:59.646Z,19.51
2017-09-06T06:30:59.659Z,19.59
2017-09-06T06:31:59.608Z,19.66
2017-09-06T06:32:59.285Z,19.77
2017-09-06T06:33:59.266Z,19.78
2017-09-06T06:34:59.263Z,19.69
2017-09-06T06:35:59.561Z,19.61
2017-09-06T06:36:59.231Z,19.71
2017-09-06T06:37:59.221Z,19.77
2017-09-06T06:38:59.498Z,19.71
2017-09-06T06:39:59.178Z,19.77
2017-09-06T06:40:59.529Z,19.74
2017-09-06T06:41:59.147Z,19.69
2017-09-06T06:42:58.828Z,19.7
2017-09-06T06:43:59.109Z,19.7
2017-09-06T06:44:59.113Z,19.7
2017-09-06T06:45:59.409Z,19.73
2017-09-06T06:46:59.099Z,19.58
2017-09-06T06:47:59.048Z,19.7
2017-09-06T06:48:58.748Z,19.69
2017-09-06T06:49:58.710Z,19.71
2017-09-06T06:50:58.708Z,19.58
2017-09-06T06:51:59.307Z,19.63
2017-09-06T06:52:58.998Z,19.7
2017-09-06T06:53:59.305Z,19.55
2017-09-06T06:54:58.961Z,19.49
2017-09-06T06:55:59.264Z,19.37
2017-09-06T06:56:59.248Z,19.53
2017-09-06T06:57:59.237Z,19.52
2017-09-06T06:58:59.218Z,19.53
2017-09-06T06:59:58.887Z,19.52
2017-09-06T07:00:58.867Z,19.56
2017-09-06T07:01:59.166Z,19.67
2017-09-06T07:02:59.158Z,19.7
2017-09-06T07:03:58.827Z,19.63
2017-09-06T07:04:59.131Z,19.71
2017-09-06T07:05:59.098Z,19.63
2017-09-06T07:06:59.029Z,19.67
2017-09-06T07:07:58.770Z,19.58
2017-09-06T07:08:59.069Z,19.56
2017-09-06T07:09:58.750Z,19.53
2017-09-06T07:10:59.048Z,19.52
2017-09-06T07:11:58.715Z,19.51
2017-09-06T07:12:58.698Z,19.49
2017-09-06T07:13:58.676Z,19.52
2017-09-06T07:14:58.968Z,19.52
2017-09-06T07:15:58.669Z,19.52
2017-09-06T07:16:58.954Z,19.61
2017-09-06T07:17:58.728Z,19.61
2017-09-06T07:18:58.910Z,19.51
2017-09-06T07:19:58.906Z,19.66
2017-09-06T07:20:58.607Z,19.73
2017-09-06T07:21:59.018Z,19.7
2017-09-06T07:22:58.547Z,19.69
2017-09-06T07:23:58.853Z,19.69
2017-09-06T07:24:58.830Z,19.71
2017-09-06T07:25:58.824Z,19.58
2017-09-06T07:26:58.827Z,19.7
2017-09-06T07:27:58.787Z,19.78
2017-09-06T07:28:58.787Z,19.52
2017-09-06T07:29:58.541Z,19.62
2017-09-06T07:30:58.749Z,19.59
2017-09-06T07:31:58.437Z,19.69
2017-09-06T07:32:58.728Z,19.67
2017-09-06T07:33:58.718Z,19.67
2017-09-06T07:34:58.700Z,19.83
2017-09-06T07:35:58.374Z,19.96
2017-09-06T07:36:58.337Z,19.96
2017-09-06T07:37:58.332Z,19.99
2017-09-06T07:38:58.640Z,20.08
2017-09-06T07:39:58.618Z,20.04
2017-09-06T07:40:58.610Z,19.92
2017-09-06T07:41:58.278Z,19.96
2017-09-06T07:42:58.319Z,20.13
2017-09-06T07:43:57.947Z,20.03
2017-09-06T07:44:58.552Z,20.2
2017-09-06T07:45:58.560Z,20.2
2017-09-06T07:46:58.206Z,20.2
2017-09-06T07:47:58.500Z,20.08
2017-09-06T07:48:57.870Z,19.86
2017-09-06T07:49:58.488Z,19.76
2017-09-06T07:50:58.248Z,19.67
2017-09-06T07:51:58.476Z,19.55
2017-09-06T07:52:58.138Z,19.55
2017-09-06T07:53:58.111Z,19.49
2017-09-06T07:54:58.426Z,19.4
2017-09-06T07:55:58.179Z,19.51
2017-09-06T07:56:58.073Z,19.55
2017-09-06T07:57:58.410Z,19.53
2017-09-06T07:58:58.378Z,19.53
2017-09-06T07:59:58.335Z,19.53
2017-09-06T08:00:58.318Z,19.38
2017-09-06T08:01:57.708Z,19.53
2017-09-06T08:02:58.300Z,19.53
2017-09-06T08:03:57.972Z,19.59
2017-09-06T08:04:58.055Z,19.62
2017-09-06T08:05:57.930Z,19.59
2017-09-06T08:06:58.316Z,19.66
2017-09-06T08:07:58.218Z,19.71
2017-09-06T08:08:57.899Z,19.63
2017-09-06T08:09:57.896Z,19.58
2017-09-06T08:10:58.179Z,19.49
2017-09-06T08:11:58.151Z,19.55
2017-09-06T08:12:57.864Z,19.52
2017-09-06T08:13:58.117Z,19.52
2017-09-06T08:14:57.800Z,19.56
2017-09-06T08:15:57.791Z,19.53
2017-09-06T08:16:57.880Z,19.52
2017-09-06T08:17:58.075Z,19.52
2017-09-06T08:18:58.163Z,19.52
2017-09-06T08:19:58.098Z,19.37
2017-09-06T08:20:58.051Z,19.43
2017-09-06T08:21:58.011Z,19.46
2017-09-06T08:22:57.702Z,19.4
2017-09-06T08:23:58.086Z,19.55
2017-09-06T08:24:57.978Z,19.53
2017-09-06T08:25:57.967Z,19.51
2017-09-06T08:26:57.938Z,19.55
2017-09-06T08:27:57.919Z,19.51
2017-09-06T08:28:57.907Z,19.51
2017-09-06T08:29:57.580Z,19.56
2017-09-06T08:30:57.879Z,19.44
2017-09-06T08:31:57.577Z,19.51
2017-09-06T08:32:57.532Z,19.44
2017-09-06T08:33:57.859Z,19.25
2017-09-06T08:34:57.808Z,19.19
2017-09-06T08:35:57.894Z,19.19
2017-09-06T08:36:57.789Z,19.36
2017-09-06T08:37:57.787Z,19.16
2017-09-06T08:38:57.777Z,19.22
2017-09-06T08:39:57.813Z,19.19
2017-09-06T08:40:57.728Z,19.25
2017-09-06T08:41:57.730Z,19.33
2017-09-06T08:42:57.403Z,19.22
2017-09-06T08:43:57.693Z,19.22
2017-09-06T08:44:57.670Z,19.28
2017-09-06T08:45:57.747Z,19.19
2017-09-06T08:46:57.661Z,19.08
2017-09-06T08:47:57.638Z,18.96
2017-09-06T08:48:57.300Z,19.04
2017-09-06T08:49:57.612Z,18.9
2017-09-06T08:50:57.582Z,18.75
2017-09-06T08:51:57.586Z,18.66
2017-09-06T08:52:57.580Z,18.56
2017-09-06T08:53:57.554Z,18.7
2017-09-06T08:54:57.548Z,18.74
2017-09-06T08:55:57.510Z,18.67
2017-09-06T08:56:57.510Z,18.63
2017-09-06T08:57:57.494Z,18.6
2017-09-06T08:58:57.484Z,18.56
2017-09-06T08:59:57.443Z,18.52
2017-09-06T09:00:57.118Z,18.5
2017-09-06T09:01:57.104Z,18.51
2017-09-06T09:02:57.100Z,18.48
2017-09-06T09:03:57.387Z,18.58
2017-09-06T09:04:57.743Z,18.66
2017-09-06T09:05:57.368Z,18.66
2017-09-06T09:06:56.727Z,18.63
2017-09-06T09:07:57.018Z,18.6
2017-09-06T09:08:57.002Z,18.63
2017-09-06T09:09:56.689Z,18.6
2017-09-06T09:10:56.979Z,18.62
2017-09-06T09:11:56.964Z,18.5
2017-09-06T09:12:56.638Z,18.41
2017-09-06T09:13:57.242Z,18.48
2017-09-06T09:14:56.909Z,18.59
2017-09-06T09:15:57.217Z,18.42
2017-09-06T09:16:57.195Z,18.58
2017-09-06T09:17:56.861Z,18.52
2017-09-06T09:18:57.167Z,18.48
2017-09-06T09:19:57.150Z,18.48
2017-09-06T09:20:57.116Z,18.44
2017-09-06T09:21:57.119Z,18.41
2017-09-06T09:22:57.109Z,18.41
2017-09-06T09:23:57.086Z,18.42
2017-09-06T09:24:57.081Z,18.3
2017-09-06T09:25:57.069Z,18.4
2017-09-06T09:26:57.038Z,18.48
2017-09-06T09:27:56.745Z,18.3
2017-09-06T09:28:56.788Z,18.35
2017-09-06T09:29:57.008Z,18.37
2017-09-06T09:30:56.677Z,18.32
2017-09-06T09:31:56.668Z,18.35
2017-09-06T09:32:56.648Z,18.48
2017-09-06T09:33:56.944Z,18.6
2017-09-06T09:34:56.619Z,18.63
2017-09-06T09:35:56.950Z,18.69
2017-09-06T09:36:56.588Z,18.81
2017-09-06T09:37:56.968Z,19
2017-09-06T09:38:56.612Z,18.81
2017-09-06T09:39:56.922Z,18.9
2017-09-06T09:40:56.644Z,18.96
2017-09-06T09:41:56.824Z,18.84
2017-09-06T09:42:56.480Z,18.93
2017-09-06T09:43:56.479Z,18.92
2017-09-06T09:44:56.918Z,18.92
2017-09-06T09:45:56.140Z,19
2017-09-06T09:46:56.147Z,19.07
2017-09-06T09:47:56.817Z,19.06
2017-09-06T09:48:56.734Z,18.96
2017-09-06T09:49:56.706Z,18.93
2017-09-06T09:50:56.097Z,18.93
2017-09-06T09:51:56.462Z,18.84
2017-09-06T09:52:56.740Z,18.85
2017-09-06T09:53:56.659Z,18.78
2017-09-06T09:54:56.796Z,18.9
2017-09-06T09:55:56.626Z,18.95
2017-09-06T09:56:56.340Z,19.14
2017-09-06T09:57:56.585Z,19.31
2017-09-06T09:58:56.590Z,19.38
2017-09-06T09:59:56.661Z,19.59
2017-09-06T10:00:56.330Z,19.77
2017-09-06T10:01:56.569Z,19.88
2017-09-06T10:02:56.551Z,19.76
2017-09-06T10:03:56.438Z,19.61
2017-09-06T10:04:56.180Z,19.53
2017-09-06T10:05:56.531Z,19.55
2017-09-06T10:06:56.500Z,19.51
2017-09-06T10:07:56.188Z,19.28
2017-09-06T10:08:55.806Z,19.34
2017-09-06T10:09:56.460Z,19.41
2017-09-06T10:10:56.440Z,19.44
2017-09-06T10:11:56.417Z,19.51
2017-09-06T10:12:56.443Z,19.59
2017-09-06T10:13:56.050Z,19.41
2017-09-06T10:14:56.389Z,19.43
2017-09-06T10:15:56.349Z,19.53
2017-09-06T10:16:56.409Z,19.73
2017-09-06T10:17:56.321Z,20.07
2017-09-06T10:18:56.291Z,20.43
2017-09-06T10:19:56.008Z,20.43
2017-09-06T10:20:55.959Z,20.1
2017-09-06T10:21:55.629Z,19.91
2017-09-06T10:22:56.312Z,19.95
2017-09-06T10:23:56.240Z,20.13
2017-09-06T10:24:56.258Z,20.48
2017-09-06T10:25:56.200Z,21.07
2017-09-06T10:26:56.188Z,21.43
2017-09-06T10:27:56.191Z,21.66
2017-09-06T10:28:56.182Z,21.62
2017-09-06T10:29:56.151Z,21.59
2017-09-06T10:30:56.145Z,21.49
2017-09-06T10:31:55.821Z,21.22
2017-09-06T10:32:55.482Z,21.1
2017-09-06T10:33:55.790Z,21.06
2017-09-06T10:34:56.126Z,21.13
2017-09-06T10:35:56.090Z,21.41
2017-09-06T10:36:56.327Z,21.54
2017-09-06T10:37:56.053Z,21.4
2017-09-06T10:38:55.971Z,21.58
2017-09-06T10:39:56.262Z,21.71
2017-09-06T10:40:55.707Z,22.12
2017-09-06T10:41:55.704Z,22.52
2017-09-06T10:42:55.684Z,22.65
2017-09-06T10:43:55.353Z,23.04
2017-09-06T10:44:55.652Z,23.24
2017-09-06T10:45:55.633Z,22.97
2017-09-06T10:46:55.952Z,23.29
2017-09-06T10:47:55.925Z,23.04
2017-09-06T10:48:55.911Z,23.36
2017-09-06T10:49:55.906Z,23.42
2017-09-06T10:50:55.587Z,23.16
2017-09-06T10:51:55.887Z,23.16
2017-09-06T10:52:55.580Z,23.42
2017-09-06T10:53:55.550Z,23.59
2017-09-06T10:54:55.861Z,23.7
2017-09-06T10:55:55.835Z,23.81
2017-09-06T10:56:55.506Z,24.1
2017-09-06T10:57:55.810Z,24.18
2017-09-06T10:58:55.499Z,23.81
2017-09-06T10:59:55.482Z,23.63
2017-09-06T11:00:55.480Z,23.6
2017-09-06T11:01:55.483Z,23.5
2017-09-06T11:02:55.759Z,23.02
2017-09-06T11:03:55.754Z,23.35
2017-09-06T11:04:55.432Z,23.55
2017-09-06T11:05:55.420Z,23.17
2017-09-06T11:06:55.421Z,23.52
2017-09-06T11:07:55.443Z,23.73
2017-09-06T11:08:55.403Z,23.6
2017-09-06T11:09:55.687Z,23.63
2017-09-06T11:10:55.669Z,23.45
2017-09-06T11:11:55.670Z,23.24
2017-09-06T11:12:55.662Z,22.67
2017-09-06T11:13:55.651Z,22.57
2017-09-06T11:14:55.322Z,22.43
2017-09-06T11:15:55.635Z,22.54
2017-09-06T11:16:55.302Z,22.59
2017-09-06T11:17:55.720Z,22.33
2017-09-06T11:18:55.282Z,22.7
2017-09-06T11:19:55.283Z,23.12
2017-09-06T11:20:55.581Z,23.33
2017-09-06T11:21:55.549Z,23.62
2017-09-06T11:22:55.562Z,23.67
2017-09-06T11:23:55.223Z,23.69
2017-09-06T11:24:55.579Z,23.91
2017-09-06T11:25:55.210Z,24.28
2017-09-06T11:26:55.199Z,23.78
2017-09-06T11:27:55.509Z,22.99
2017-09-06T11:28:55.171Z,23.04
2017-09-06T11:29:55.460Z,23.1
2017-09-06T11:30:55.469Z,22.95
2017-09-06T11:31:55.141Z,22.91
2017-09-06T11:32:55.448Z,23.04
2017-09-06T11:33:55.438Z,23.1
2017-09-06T11:34:55.420Z,23.27
2017-09-06T11:35:55.404Z,23.33
2017-09-06T11:36:55.387Z,23.47
2017-09-06T11:37:55.384Z,23.4
2017-09-06T11:38:55.369Z,23.28
2017-09-06T11:39:55.368Z,23.03
2017-09-06T11:40:55.352Z,22.94
2017-09-06T11:41:55.332Z,22.73
2017-09-06T11:42:55.324Z,22.54
2017-09-06T11:43:55.331Z,22.51
2017-09-06T11:44:55.302Z,22.4
2017-09-06T11:45:54.984Z,22.12
2017-09-06T11:46:55.321Z,21.86
2017-09-06T11:47:55.301Z,21.65
2017-09-06T11:48:54.949Z,21.61
2017-09-06T11:49:54.629Z,21.37
2017-09-06T11:50:55.250Z,21.52
2017-09-06T11:51:54.908Z,21.26
2017-09-06T11:52:55.213Z,21.28
2017-09-06T11:53:55.250Z,21.47
2017-09-06T11:54:55.183Z,21.77
2017-09-06T11:55:55.190Z,22.21
2017-09-06T11:56:54.870Z,22.37
2017-09-06T11:57:55.171Z,22.79
2017-09-06T11:58:54.831Z,23.17
2017-09-06T11:59:55.129Z,23.44
2017-09-06T12:00:55.122Z,23.59
2017-09-06T12:01:55.161Z,23.8
2017-09-06T12:02:55.091Z,23.89
2017-09-06T12:03:55.122Z,23.95
2017-09-06T12:04:55.088Z,23.96
2017-09-06T12:05:54.738Z,23.92
2017-09-06T12:06:54.679Z,23.84
2017-09-06T12:07:54.719Z,23.67
2017-09-06T12:08:55.033Z,23.44
2017-09-06T12:09:55.037Z,23.07
2017-09-06T12:10:54.689Z,23.22
2017-09-06T12:11:54.679Z,23.27
2017-09-06T12:12:54.738Z,23.21
2017-09-06T12:13:54.340Z,23.27
2017-09-06T12:14:54.427Z,23.42
2017-09-06T12:15:55.050Z,23.57
2017-09-06T12:16:55.032Z,23.77
2017-09-06T12:17:55.018Z,23.82
2017-09-06T12:18:54.956Z,23.85
2017-09-06T12:19:54.790Z,23.81
2017-09-06T12:20:54.578Z,23.32
2017-09-06T12:21:54.869Z,22.88
2017-09-06T12:22:54.559Z,22.66
2017-09-06T12:23:54.859Z,22.57
2017-09-06T12:24:54.821Z,22.48
2017-09-06T12:25:54.827Z,22.58
2017-09-06T12:26:54.830Z,22.43
2017-09-06T12:27:54.807Z,22.54
2017-09-06T12:28:54.477Z,22.21
2017-09-06T12:29:54.493Z,22.08
2017-09-06T12:30:54.796Z,22.14
2017-09-06T12:31:54.748Z,22.02
2017-09-06T12:32:54.751Z,21.96
2017-09-06T12:33:54.740Z,21.86
2017-09-06T12:34:54.732Z,21.97
2017-09-06T12:35:54.437Z,21.84
2017-09-06T12:36:54.698Z,21.92
2017-09-06T12:37:54.718Z,21.81
2017-09-06T12:38:54.670Z,21.8
2017-09-06T12:39:54.448Z,21.47
2017-09-06T12:40:54.340Z,21.28
2017-09-06T12:41:54.415Z,21.11
2017-09-06T12:42:54.629Z,21.02
2017-09-06T12:43:54.628Z,20.91
2017-09-06T12:44:54.604Z,20.81
2017-09-06T12:45:54.597Z,20.62
2017-09-06T12:46:54.620Z,20.52
2017-09-06T12:47:54.555Z,20.58
2017-09-06T12:48:54.230Z,20.6
2017-09-06T12:49:53.907Z,20.49
2017-09-06T12:50:54.517Z,20.55
2017-09-06T12:51:54.545Z,20.51
2017-09-06T12:52:54.207Z,20.7
2017-09-06T12:53:54.178Z,20.95
2017-09-06T12:54:54.167Z,21.15